Time;durP1;ratioP1;P1;durP2;ratioP2;P2;SDS_P1;SDS_P2;PMS_P1;PMS_P2;Temp;Humidity;BMP_temperature;BMP_pressure;BME280_temperature;BME280_humidity;BME280_pressure;Samples;Min_cycle;Max_cycle;Signal;HPM_P1;HPM_P2
2021/07/29 00:00:26;;;;;;;;;;;;;;;23.67;48.78;100729.91;5096208;28;1921;-48
2021/07/29 00:02:51;;;;;;;;;;;;;;;24.36;45.59;100733.56;5097195;28;771;-35
2021/07/29 00:05:17;;;;;;;;;;;;;;;22.94;52.06;100722.03;5096568;28;739;-33
2021/07/29 00:07:42;;;;;;;;;;;;;;;24.83;45.42;100718.63;5096337;28;1025;-33
2021/07/29 00:10:07;;;;;;;;;;;;;;;22.52;51.81;100716.28;5096540;28;791;-39
2021/07/29 00:12:33;;;;;;;;;;;;;;;24.55;46.06;100692.91;5064065;28;951;-43
2021/07/29 00:14:58;;;;;;;;;;;;;;;22.38;50.17;100678.28;5076220;28;752;-41
2021/07/29 00:19:01;;;;;;;;;;;;;;;24.13;47.09;100681.22;5076475;28;741;-39
2021/07/29 00:20:24;;;;;;;;;;;;;;;22.10;50.94;100664.94;5075902;28;1957;-36
2021/07/29 00:22:52;;;;;;;;;;;;;;;24.03;47.38;100659.00;5076163;28;906;-35
2021/07/29 00:25:17;;;;;;;;;;;;;;;22.65;49.41;100648.03;5075784;28;823;-33
2021/07/29 00:27:43;;;;;;;;;;;;;;;23.75;48.50;100659.28;5091124;28;994;-46
2021/07/29 00:30:08;;;;;;;;;;;;;;;25.00;44.23;100659.44;5096563;28;873;-41
2021/07/29 00:32:34;;;;;;;;;;;;;;;23.20;51.34;100657.66;5096255;28;771;-35
2021/07/29 00:35:01;;;;;;;;;;;;;;;24.93;45.49;100654.75;5096543;28;767;-36
2021/07/29 00:37:26;;;;;;;;;;;;;;;22.27;52.70;100649.03;5096747;28;771;-35
2021/07/29 00:39:52;;;;;;;;;;;;;;;24.33;46.60;100646.84;5095827;28;1960;-36
2021/07/29 00:42:17;;;;;;;;;;;;;;;22.18;50.83;100648.09;5095755;28;994;-36
2021/07/29 00:44:42;;;;;;;;;;;;;;;24.08;47.24;100640.56;5095960;28;853;-35
2021/07/29 00:47:07;;;;;;;;;;;;;;;23.08;48.03;100645.50;5096278;28;759;-44
2021/07/29 00:49:33;;;;;;;;;;;;;;;23.78;48.30;100632.94;5096556;28;830;-48
2021/07/29 00:51:58;;;;;;;;;;;;;;;24.78;44.32;100621.44;5095833;28;819;-37
2021/07/29 00:54:27;;;;;;;;;;;;;;;23.55;49.97;100625.47;5096067;28;1126;-36
2021/07/29 00:56:53;;;;;;;;;;;;;;;25.05;44.52;100611.34;5070800;28;974;-50
2021/07/29 00:59:18;;;;;;;;;;;;;;;22.87;51.55;100607.31;5079481;28;812;-48
2021/07/29 01:01:43;;;;;;;;;;;;;;;24.71;45.36;100613.22;5079946;28;1969;-39
2021/07/29 01:04:08;;;;;;;;;;;;;;;22.94;48.11;100587.91;5079932;28;847;-36
2021/07/29 01:06:34;;;;;;;;;;;;;;;23.94;47.40;100597.19;5079342;28;814;-33
2021/07/29 01:09:00;;;;;;;;;;;;;;;24.13;45.34;100599.75;5079583;28;828;-38
2021/07/29 01:11:25;;;;;;;;;;;;;;;23.50;49.56;100595.59;5083713;28;998;-33
2021/07/29 01:13:50;;;;;;;;;;;;;;;24.93;44.82;100602.78;5099798;28;843;-33
2021/07/29 01:16:15;;;;;;;;;;;;;;;22.72;49.98;100593.63;5099966;28;783;-34
2021/07/29 01:18:41;;;;;;;;;;;;;;;24.65;45.22;100584.31;5099439;28;812;-35
2021/07/29 01:21:06;;;;;;;;;;;;;;;22.29;50.33;100584.56;5081142;28;1907;-49
2021/07/29 01:23:31;;;;;;;;;;;;;;;24.26;46.41;100583.16;5099811;28;812;-35
2021/07/29 01:25:56;;;;;;;;;;;;;;;23.17;47.68;100571.25;5099352;28;986;-35
2021/07/29 01:28:23;;;;;;;;;;;;;;;23.85;47.83;100580.25;5099432;28;763;-38
2021/07/29 01:30:48;;;;;;;;;;;;;;;24.45;44.66;100596.28;5099405;28;905;-36
2021/07/29 01:33:13;;;;;;;;;;;;;;;23.58;49.13;100606.34;5099023;28;854;-39
2021/07/29 01:35:38;;;;;;;;;;;;;;;24.99;44.29;100603.97;5099516;28;838;-35
2021/07/29 01:38:04;;;;;;;;;;;;;;;22.61;49.14;100591.22;5099117;28;784;-34
2021/07/29 01:40:29;;;;;;;;;;;;;;;24.02;47.16;100599.09;5099085;28;1890;-38
2021/07/29 01:42:54;;;;;;;;;;;;;;;23.67;45.85;100617.94;5099245;28;998;-34
2021/07/29 01:45:19;;;;;;;;;;;;;;;23.76;47.94;100626.03;5099084;28;734;-35
2021/07/29 01:47:45;;;;;;;;;;;;;;;25.14;43.75;100622.94;5099046;28;1122;-35
2021/07/29 01:50:10;;;;;;;;;;;;;;;21.82;51.06;100640.03;5099193;28;917;-33
2021/07/29 01:52:38;;;;;;;;;;;;;;;24.18;46.28;100653.88;5099630;28;700;-45
2021/07/29 01:55:04;;;;;;;;;;;;;;;22.56;48.83;100639.06;5098792;28;1224;-37
2021/07/29 01:57:30;;;;;;;;;;;;;;;23.98;47.08;100646.06;5098544;28;942;-36
2021/07/29 01:59:55;;;;;;;;;;;;;;;23.90;45.30;100649.59;5098873;28;1965;-34
2021/07/29 02:02:20;;;;;;;;;;;;;;;23.41;49.40;100647.53;5098955;28;808;-36
2021/07/29 02:04:45;;;;;;;;;;;;;;;25.02;44.44;100630.53;5099320;28;819;-47
2021/07/29 02:07:11;;;;;;;;;;;;;;;22.35;51.75;100634.88;5098655;28;768;-35
2021/07/29 02:09:36;;;;;;;;;;;;;;;24.46;45.69;100637.44;5097451;28;855;-33
2021/07/29 02:12:01;;;;;;;;;;;;;;;23.43;46.25;100629.44;5097972;28;943;-49
2021/07/29 02:14:28;;;;;;;;;;;;;;;23.61;48.68;100658.88;5099040;28;925;-34
2021/07/29 02:16:53;;;;;;;;;;;;;;;25.06;44.06;100645.31;5098218;28;1585;-35
2021/07/29 02:19:19;;;;;;;;;;;;;;;22.30;49.52;100639.84;5098691;28;547;-47
2021/07/29 02:21:44;;;;;;;;;;;;;;;23.60;48.38;100644.63;5098041;28;1891;-34
2021/07/29 02:24:09;;;;;;;;;;;;;;;25.15;43.59;100643.44;5098180;28;835;-41
2021/07/29 02:26:35;;;;;;;;;;;;;;;22.17;49.80;100622.28;5098283;28;958;-34
2021/07/29 02:29:00;;;;;;;;;;;;;;;24.05;46.85;100624.78;5098240;28;751;-35
2021/07/29 02:31:25;;;;;;;;;;;;;;;25.27;45.81;100595.47;5098457;28;761;-34
2021/07/29 02:33:50;;;;;;;;;;;;;;;21.91;50.91;100598.94;5098080;28;830;-35
2021/07/29 02:36:16;;;;;;;;;;;;;;;24.16;46.29;100600.28;5097905;28;768;-44
2021/07/29 02:38:41;;;;;;;;;;;;;;;25.22;45.67;100593.28;5098272;28;935;-33
2021/07/29 02:41:06;;;;;;;;;;;;;;;21.83;51.42;100567.56;5098290;28;1975;-34
2021/07/29 02:43:32;;;;;;;;;;;;;;;23.99;47.10;100559.09;5097734;28;1064;-47
2021/07/29 02:45:57;;;;;;;;;;;;;;;25.03;47.01;100540.69;5097956;28;893;-35
2021/07/29 02:48:22;;;;;;;;;;;;;;;21.91;51.34;100553.41;5097841;28;767;-37
2021/07/29 02:50:54;;;;;;;;;;;;;;;24.19;46.40;100564.19;5097531;28;733;-45
2021/07/29 02:53:20;;;;;;;;;;;;;;;25.20;45.83;100568.41;5098004;28;1110;-49
2021/07/29 02:55:45;;;;;;;;;;;;;;;22.05;50.93;100570.81;5098067;28;830;-35
2021/07/29 02:58:10;;;;;;;;;;;;;;;24.34;45.68;100578.63;5097433;28;1005;-36
2021/07/29 03:00:35;;;;;;;;;;;;;;;24.97;46.63;100595.22;5097772;28;1979;-33
2021/07/29 03:03:01;;;;;;;;;;;;;;;24.33;45.62;100584.16;5098023;28;878;-48
2021/07/29 03:05:26;;;;;;;;;;;;;;;23.89;46.55;100578.03;5097777;28;906;-30
2021/07/29 03:07:51;;;;;;;;;;;;;;;24.31;47.70;100567.34;5097836;28;787;-29
2021/07/29 03:10:16;;;;;;;;;;;;;;;25.20;42.83;100576.47;5097334;28;918;-44
2021/07/29 03:12:42;;;;;;;;;;;;;;;24.53;45.40;100573.91;5064449;28;1513;-44
2021/07/29 03:15:07;;;;;;;;;;;;;;;24.15;46.46;100562.81;5077154;28;771;-47
2021/07/29 03:17:33;;;;;;;;;;;;;;;24.35;45.86;100568.72;5077090;28;788;-49
2021/07/29 03:19:58;;;;;;;;;;;;;;;25.22;44.78;100563.69;5077145;28;1903;-33
2021/07/29 03:22:23;;;;;;;;;;;;;;;24.58;47.44;100554.56;5076652;28;895;-41
2021/07/29 03:24:48;;;;;;;;;;;;;;;24.24;48.94;100553.75;5076722;28;748;-33
2021/07/29 03:27:14;;;;;;;;;;;;;;;24.11;49.34;100554.22;5087613;28;982;-35
2021/07/29 03:29:39;;;;;;;;;;;;;;;24.05;49.10;100546.84;5097406;28;831;-46
2021/07/29 03:32:04;;;;;;;;;;;;;;;24.18;48.59;100539.16;5096767;28;839;-41
2021/07/29 03:34:30;;;;;;;;;;;;;;;23.62;49.24;100547.81;5097025;28;882;-46
2021/07/29 03:36:55;;;;;;;;;;;;;;;23.94;49.37;100550.72;5097270;28;759;-35
2021/07/29 03:39:20;;;;;;;;;;;;;;;23.78;49.83;100556.88;5096613;28;775;-46
2021/07/29 03:41:46;;;;;;;;;;;;;;;23.48;49.80;100566.22;5097259;28;1965;-34
2021/07/29 03:44:11;;;;;;;;;;;;;;;21.24;55.50;100551.81;5097176;28;763;-34
2021/07/29 03:46:37;;;;;;;;;;;;;;;20.91;56.30;100546.84;5096865;28;745;-46
2021/07/29 03:49:02;;;;;;;;;;;;;;;20.72;56.89;100553.94;5097139;28;772;-46
2021/07/29 03:51:27;;;;;;;;;;;;;;;20.47;57.94;100556.22;5097149;28;725;-45
2021/07/29 03:53:53;;;;;;;;;;;;;;;20.41;58.10;100563.00;5096199;28;1409;-44
2021/07/29 03:56:18;;;;;;;;;;;;;;;22.72;54.73;100568.69;5096967;28;962;-34
2021/07/29 03:58:43;;;;;;;;;;;;;;;24.87;47.97;100568.47;5096939;28;767;-39
2021/07/29 04:01:10;;;;;;;;;;;;;;;25.72;46.11;100563.47;5096779;28;1906;-31
2021/07/29 04:03:36;;;;;;;;;;;;;;;25.97;45.55;100557.06;5096477;28;829;-27
2021/07/29 04:06:01;;;;;;;;;;;;;;;22.79;52.30;100558.16;5096343;28;864;-32
2021/07/29 04:08:26;;;;;;;;;;;;;;;21.45;55.55;100556.09;5096419;28;812;-46
2021/07/29 04:10:52;;;;;;;;;;;;;;;21.14;56.98;100555.38;5096457;28;849;-47
2021/07/29 04:13:18;;;;;;;;;;;;;;;21.11;57.62;100557.50;5096202;28;946;-35
2021/07/29 04:15:43;;;;;;;;;;;;;;;21.06;58.11;100557.09;5078207;28;1143;-37
2021/07/29 04:18:09;;;;;;;;;;;;;;;20.95;57.99;100558.13;5096362;28;751;-47
2021/07/29 04:20:34;;;;;;;;;;;;;;;22.40;54.28;100557.53;5096318;28;1891;-32
2021/07/29 04:22:59;;;;;;;;;;;;;;;20.96;55.96;100557.13;5096911;28;839;-47
2021/07/29 04:25:25;;;;;;;;;;;;;;;23.06;53.14;100557.13;5096463;28;795;-33
2021/07/29 04:27:50;;;;;;;;;;;;;;;24.21;47.55;100567.53;5096203;28;1002;-40
2021/07/29 04:30:15;;;;;;;;;;;;;;;21.85;53.80;100565.59;5096327;28;815;-32
2021/07/29 04:32:41;;;;;;;;;;;;;;;23.04;50.99;100563.66;5078737;28;1251;-46
2021/07/29 04:35:06;;;;;;;;;;;;;;;24.99;46.10;100559.03;5100494;28;798;-34
2021/07/29 04:37:31;;;;;;;;;;;;;;;25.52;43.87;100560.34;5100758;28;787;-46
2021/07/29 04:39:57;;;;;;;;;;;;;;;25.72;44.00;100563.47;5100213;28;1959;-35
2021/07/29 04:42:22;;;;;;;;;;;;;;;26.05;43.61;100562.38;5100160;28;1010;-48
2021/07/29 04:44:47;;;;;;;;;;;;;;;26.41;42.59;100559.06;5100195;28;814;-35
2021/07/29 04:47:16;;;;;;;;;;;;;;;26.59;42.67;100562.44;5100515;28;803;-32
2021/07/29 04:49:41;;;;;;;;;;;;;;;26.68;42.40;100555.94;5100390;28;846;-28
2021/07/29 04:52:06;;;;;;;;;;;;;;;26.79;42.05;100560.06;5100808;28;756;-31
2021/07/29 04:54:32;;;;;;;;;;;;;;;26.77;42.41;100562.94;5100077;28;1367;-36
2021/07/29 04:56:57;;;;;;;;;;;;;;;26.76;42.07;100560.41;5099903;28;1017;-37
2021/07/29 04:59:22;;;;;;;;;;;;;;;26.90;42.01;100561.44;5100322;28;763;-36
2021/07/29 05:01:48;;;;;;;;;;;;;;;26.85;41.85;100571.94;5100309;28;1913;-38
2021/07/29 05:04:14;;;;;;;;;;;;;;;26.80;42.12;100569.81;5097629;28;980;-37
2021/07/29 05:06:40;;;;;;;;;;;;;;;26.96;41.78;100560.69;5099689;28;832;-38
2021/07/29 05:09:05;;;;;;;;;;;;;;;26.91;41.93;100560.41;5099485;28;1463;-38
2021/07/29 05:11:30;;;;;;;;;;;;;;;26.95;41.88;100561.72;5099524;28;1002;-37
2021/07/29 05:13:55;;;;;;;;;;;;;;;27.15;41.64;100563.88;5099946;28;784;-41
2021/07/29 05:16:21;;;;;;;;;;;;;;;27.04;41.18;100561.66;5099521;28;792;-40
2021/07/29 05:18:46;;;;;;;;;;;;;;;27.19;41.37;100562.50;5100167;28;775;-39
2021/07/29 05:21:11;;;;;;;;;;;;;;;27.29;41.24;100573.00;5099736;28;1906;-37
2021/07/29 05:23:37;;;;;;;;;;;;;;;27.08;41.64;100562.94;5099441;28;980;-38
2021/07/29 05:26:02;;;;;;;;;;;;;;;27.08;41.42;100563.78;5099444;28;954;-40
2021/07/29 05:28:27;;;;;;;;;;;;;;;27.27;41.07;100564.25;5099459;28;855;-35
2021/07/29 05:30:53;;;;;;;;;;;;;;;27.14;41.47;100565.72;5099671;28;771;-40
2021/07/29 05:33:18;;;;;;;;;;;;;;;27.07;41.34;100569.38;5099331;28;856;-37
2021/07/29 05:35:43;;;;;;;;;;;;;;;27.49;40.64;100575.09;5099087;28;767;-37
2021/07/29 05:38:08;;;;;;;;;;;;;;;27.29;41.69;100569.44;5099379;28;776;-36
2021/07/29 05:40:34;;;;;;;;;;;;;;;27.25;41.19;100569.00;5099411;28;1972;-37
2021/07/29 05:43:00;;;;;;;;;;;;;;;27.48;40.46;100563.44;5099051;28;935;-36
2021/07/29 05:45:27;;;;;;;;;;;;;;;27.59;40.58;100572.91;5099137;28;795;-37
2021/07/29 05:47:53;;;;;;;;;;;;;;;27.55;40.67;100576.19;5098756;28;854;-37
2021/07/29 05:50:18;;;;;;;;;;;;;;;27.27;40.93;100569.66;5099051;28;783;-36
2021/07/29 05:52:43;;;;;;;;;;;;;;;27.25;40.86;100577.09;5099323;28;847;-37
2021/07/29 05:55:09;;;;;;;;;;;;;;;27.38;40.34;100574.56;5099210;28;1090;-36
2021/07/29 05:57:34;;;;;;;;;;;;;;;27.64;40.20;100564.25;5080621;28;1281;-38
2021/07/29 06:00:01;;;;;;;;;;;;;;;27.29;41.03;100567.59;5099189;28;1910;-39
2021/07/29 06:02:26;;;;;;;;;;;;;;;27.38;40.05;100568.31;5099108;28;756;-40
2021/07/29 06:04:52;;;;;;;;;;;;;;;27.43;39.83;100568.59;5099363;28;976;-39
2021/07/29 06:07:18;;;;;;;;;;;;;;;27.48;39.93;100565.31;5099177;28;830;-40
2021/07/29 06:09:43;;;;;;;;;;;;;;;27.66;39.93;100564.88;5098824;28;791;-40
2021/07/29 06:12:09;;;;;;;;;;;;;;;27.38;40.52;100554.81;5098446;28;1030;-39
2021/07/29 06:14:34;;;;;;;;;;;;;;;27.06;39.90;100552.34;5098995;28;740;-38
2021/07/29 06:16:59;;;;;;;;;;;;;;;27.41;38.97;100557.13;5098971;28;760;-38
2021/07/29 06:19:31;;;;;;;;;;;;;;;27.70;39.25;100558.09;5098967;28;810;-39
2021/07/29 06:21:57;;;;;;;;;;;;;;;27.96;38.96;100555.88;5098742;28;1979;-39
2021/07/29 06:24:22;;;;;;;;;;;;;;;27.78;37.89;100551.72;5098838;28;826;-38
2021/07/29 06:26:49;;;;;;;;;;;;;;;27.82;36.38;100552.19;5098373;28;974;-38
2021/07/29 06:29:14;;;;;;;;;;;;;;;27.77;38.14;100552.78;5090745;28;1095;-39
2021/07/29 06:31:39;;;;;;;;;;;;;;;27.65;39.13;100557.81;5077976;28;820;-36
2021/07/29 06:34:04;;;;;;;;;;;;;;;27.47;40.06;100559.09;5078569;28;878;-39
2021/07/29 06:36:30;;;;;;;;;;;;;;;27.42;39.80;100547.16;5078431;28;791;-37
2021/07/29 06:38:55;;;;;;;;;;;;;;;27.29;39.88;100553.25;5078250;28;724;-38
2021/07/29 06:41:20;;;;;;;;;;;;;;;27.18;39.75;100555.41;5081427;28;1890;-39
2021/07/29 06:43:45;;;;;;;;;;;;;;;27.14;40.14;100554.13;5098469;28;787;-38
2021/07/29 06:46:11;;;;;;;;;;;;;;;27.25;40.26;100548.22;5098072;28;1039;-35
2021/07/29 06:48:36;;;;;;;;;;;;;;;27.62;39.52;100556.34;5097917;28;803;-35
2021/07/29 06:51:04;;;;;;;;;;;;;;;27.70;39.61;100557.25;5098600;28;827;-37
2021/07/29 06:53:30;;;;;;;;;;;;;;;27.55;39.68;100560.81;5098125;28;1261;-37
2021/07/29 06:56:01;;;;;;;;;;;;;;;27.50;39.76;100557.84;5097490;28;1022;-38
2021/07/29 06:58:26;;;;;;;;;;;;;;;27.49;39.52;100569.69;5097693;28;800;-38
2021/07/29 07:00:52;;;;;;;;;;;;;;;27.37;39.76;100566.66;5097736;28;1910;-38
2021/07/29 07:03:17;;;;;;;;;;;;;;;27.49;39.79;100559.72;5098172;28;846;-39
2021/07/29 07:05:45;;;;;;;;;;;;;;;27.83;39.47;100560.09;5097711;28;838;-39
2021/07/29 07:08:11;;;;;;;;;;;;;;;28.10;39.19;100568.47;5097873;28;838;-40
2021/07/29 07:10:36;;;;;;;;;;;;;;;27.74;39.53;100566.69;5097994;28;883;-40
2021/07/29 07:13:01;;;;;;;;;;;;;;;27.66;39.55;100561.34;5097345;28;990;-40
2021/07/29 07:15:26;;;;;;;;;;;;;;;27.56;39.53;100562.50;5098230;28;819;-38
2021/07/29 07:17:53;;;;;;;;;;;;;;;27.68;39.50;100562.84;5097703;28;769;-39
2021/07/29 07:20:18;;;;;;;;;;;;;;;27.49;39.83;100561.59;5097232;28;1969;-40
2021/07/29 07:22:44;;;;;;;;;;;;;;;27.69;40.02;100561.84;5097819;28;763;-39
2021/07/29 07:25:09;;;;;;;;;;;;;;;28.01;39.53;100558.81;5097844;28;763;-38
2021/07/29 07:27:34;;;;;;;;;;;;;;;27.69;39.88;100558.31;5097049;28;974;-39
2021/07/29 07:29:59;;;;;;;;;;;;;;;27.62;39.14;100558.19;5097753;28;764;-38
2021/07/29 07:32:25;;;;;;;;;;;;;;;28.06;38.26;100566.38;5097325;28;871;-41
2021/07/29 07:34:50;;;;;;;;;;;;;;;28.28;38.48;100558.22;5097401;28;795;-39
2021/07/29 07:37:18;;;;;;;;;;;;;;;28.15;38.51;100562.47;5097511;28;796;-39
2021/07/29 07:39:43;;;;;;;;;;;;;;;28.01;39.05;100561.50;5097325;28;829;-38
2021/07/29 07:42:09;;;;;;;;;;;;;;;28.21;38.39;100550.88;5096685;28;1897;-38
2021/07/29 07:44:34;;;;;;;;;;;;;;;28.41;38.16;100557.53;5097125;28;819;-40
2021/07/29 07:46:59;;;;;;;;;;;;;;;28.34;38.32;100558.28;5097269;28;807;-39
2021/07/29 07:49:24;;;;;;;;;;;;;;;28.50;37.77;100552.78;5096908;28;1279;-42
2021/07/29 07:51:50;;;;;;;;;;;;;;;28.68;37.83;100549.56;5097269;28;751;-41
2021/07/29 07:54:15;;;;;;;;;;;;;;;28.60;37.97;100556.81;5096885;28;1090;-39
2021/07/29 07:56:42;;;;;;;;;;;;;;;28.31;38.00;100550.53;5096671;28;986;-38
2021/07/29 07:59:07;;;;;;;;;;;;;;;28.27;38.23;100549.28;5096742;28;811;-41
2021/07/29 08:01:32;;;;;;;;;;;;;;;28.36;38.13;100550.00;5096332;28;1972;-40
2021/07/29 08:03:57;;;;;;;;;;;;;;;28.36;38.04;100541.88;5097337;28;918;-39
2021/07/29 08:06:23;;;;;;;;;;;;;;;28.47;38.01;100541.34;5097215;28;806;-39
2021/07/29 08:08:48;;;;;;;;;;;;;;;28.28;38.52;100545.53;5095458;28;819;-39
2021/07/29 08:11:13;;;;;;;;;;;;;;;28.81;37.71;100540.72;5096560;28;923;-39
2021/07/29 08:13:39;;;;;;;;;;;;;;;28.77;37.32;100545.69;5097351;28;820;-40
2021/07/29 08:16:05;;;;;;;;;;;;;;;28.64;37.14;100543.75;5096755;28;745;-37
2021/07/29 08:18:31;;;;;;;;;;;;;;;28.60;37.32;100543.28;5096672;28;763;-38
2021/07/29 08:20:56;;;;;;;;;;;;;;;28.63;37.41;100552.88;5097515;28;1965;-37
2021/07/29 08:23:22;;;;;;;;;;;;;;;28.79;36.90;100550.91;5096497;28;818;-37
2021/07/29 08:25:47;;;;;;;;;;;;;;;28.82;36.96;100547.78;5079237;28;783;-37
2021/07/29 08:28:13;;;;;;;;;;;;;;;29.05;37.16;100546.69;5096365;28;955;-38
2021/07/29 08:30:38;;;;;;;;;;;;;;;29.00;36.99;100541.88;5096211;28;866;-36
2021/07/29 08:33:07;;;;;;;;;;;;;;;28.89;36.40;100545.97;5096903;28;772;-38
2021/07/29 08:35:34;;;;;;;;;;;;;;;28.78;36.15;100539.22;5096574;28;787;-38
2021/07/29 08:37:59;;;;;;;;;;;;;;;28.61;36.66;100538.72;5096561;28;779;-39
2021/07/29 08:40:24;;;;;;;;;;;;;;;28.75;36.58;100541.47;5096508;28;1898;-38
2021/07/29 08:42:49;;;;;;;;;;;;;;;28.86;36.50;100538.25;5096044;28;1943;-38
2021/07/29 08:45:15;;;;;;;;;;;;;;;28.91;36.49;100545.75;5096571;28;736;-40
2021/07/29 08:47:41;;;;;;;;;;;;;;;28.94;36.60;100537.22;5096703;28;802;-39
2021/07/29 08:50:07;;;;;;;;;;;;;;;29.20;36.81;100531.13;5096189;28;771;-40
2021/07/29 08:52:32;;;;;;;;;;;;;;;29.29;36.83;100528.25;5096794;28;787;-39
2021/07/29 08:54:58;;;;;;;;;;;;;;;29.39;36.84;100542.25;5096469;28;1303;-40
2021/07/29 08:57:31;;;;;;;;;;;;;;;29.55;39.22;100545.59;5096331;28;1026;-42
2021/07/29 08:59:56;;;;;;;;;;;;;;;29.43;37.30;100540.78;5095649;28;1887;-43
2021/07/29 09:02:30;;;;;;;;;;;;;;;29.47;37.15;100546.63;5096346;28;764;-42
2021/07/29 09:05:08;;;;;;;;;;;;;;;29.33;37.25;100541.16;5096304;28;760;-43
2021/07/29 09:07:33;;;;;;;;;;;;;;;29.19;37.54;100548.44;5096557;28;734;-42
2021/07/29 09:09:59;;;;;;;;;;;;;;;29.35;37.50;100551.78;5096858;28;815;-43
2021/07/29 09:12:24;;;;;;;;;;;;;;;29.14;37.01;100552.75;5095810;28;947;-42
2021/07/29 09:14:50;;;;;;;;;;;;;;;29.38;37.08;100551.38;5096184;28;800;-43
2021/07/29 09:17:16;;;;;;;;;;;;;;;29.33;37.50;100551.16;5096690;28;740;-42
2021/07/29 09:19:42;;;;;;;;;;;;;;;29.25;37.94;100544.06;5098320;28;1552;-43
2021/07/29 09:22:08;;;;;;;;;;;;;;;29.26;38.17;100551.13;5100049;28;1902;-41
2021/07/29 09:24:33;;;;;;;;;;;;;;;29.40;38.08;100548.47;5099941;28;783;-42
2021/07/29 09:26:59;;;;;;;;;;;;;;;29.36;38.03;100545.34;5099573;28;966;-40
2021/07/29 09:29:27;;;;;;;;;;;;;;;29.40;38.17;100545.75;5100040;28;803;-42
2021/07/29 09:32:11;;;;;;;;;;;;;;;29.33;38.49;100545.75;5099869;28;798;-39
2021/07/29 09:34:46;;;;;;;;;;;;;;;25.42;45.24;100542.53;5099902;28;794;-39
2021/07/29 09:37:11;;;;;;;;;;;;;;;24.11;43.46;100530.03;5099932;28;780;-39
2021/07/29 09:39:37;;;;;;;;;;;;;;;22.79;44.98;100536.72;5099048;28;870;-41
2021/07/29 09:42:15;;;;;;;;;;;;;;;22.21;44.23;100537.09;5081636;28;1906;-39
2021/07/29 09:44:44;;;;;;;;;;;;;;;21.47;44.35;100538.06;5099748;28;756;-37
2021/07/29 09:47:09;;;;;;;;;;;;;;;21.10;44.46;100529.94;5099185;28;847;-39
2021/07/29 09:49:35;;;;;;;;;;;;;;;21.00;44.17;100526.44;5099424;28;902;-39
2021/07/29 09:52:00;;;;;;;;;;;;;;;23.47;40.71;100532.31;5099705;28;807;-39
2021/07/29 09:54:25;;;;;;;;;;;;;;;26.04;36.78;100531.88;5093942;28;1112;-42
2021/07/29 09:56:51;;;;;;;;;;;;;;;26.88;38.22;100531.09;5115553;28;934;-42
2021/07/29 09:59:16;;;;;;;;;;;;;;;26.69;39.21;100536.03;5119633;28;751;-42
2021/07/29 10:01:41;;;;;;;;;;;;;;;27.00;38.66;100536.84;5119547;28;1973;-39
2021/07/29 10:04:07;;;;;;;;;;;;;;;27.14;38.81;100538.72;5101697;28;794;-39
2021/07/29 10:06:32;;;;;;;;;;;;;;;27.38;38.67;100538.59;5119320;28;843;-41
2021/07/29 10:08:58;;;;;;;;;;;;;;;27.54;38.90;100540.25;5119552;28;751;-39
2021/07/29 10:11:24;;;;;;;;;;;;;;;27.69;38.93;100542.09;5096557;28;934;-40
2021/07/29 10:13:51;;;;;;;;;;;;;;;27.94;38.78;100536.31;5099109;28;823;-38
2021/07/29 10:16:17;;;;;;;;;;;;;;;28.27;38.82;100533.03;5099350;28;834;-41
2021/07/29 10:18:48;;;;;;;;;;;;;;;28.20;39.10;100529.44;5098965;28;783;-38
2021/07/29 10:21:20;;;;;;;;;;;;;;;27.97;38.96;100515.13;5098776;28;1965;-38
2021/07/29 10:23:52;;;;;;;;;;;;;;;27.92;39.35;100522.97;5098923;28;811;-38
2021/07/29 10:26:17;;;;;;;;;;;;;;;27.93;39.26;100511.13;5101946;28;954;-40
2021/07/29 10:28:43;;;;;;;;;;;;;;;27.89;39.68;100509.84;5119280;28;790;-40
2021/07/29 10:31:08;;;;;;;;;;;;;;;27.96;39.51;100507.22;5118091;28;791;-40
2021/07/29 10:33:33;;;;;;;;;;;;;;;28.35;39.21;100505.88;5119252;28;743;-41
2021/07/29 10:35:59;;;;;;;;;;;;;;;28.66;38.96;100511.88;5118909;28;758;-41
2021/07/29 10:38:43;;;;;;;;;;;;;;;28.21;38.78;100498.66;5119027;28;795;-39
2021/07/29 10:41:08;;;;;;;;;;;;;;;28.01;38.51;100502.03;5116346;28;1955;-40
2021/07/29 10:43:33;;;;;;;;;;;;;;;28.21;38.24;100490.56;5098371;28;827;-41
2021/07/29 10:46:02;;;;;;;;;;;;;;;28.19;38.45;100489.91;5098481;28;759;-40
2021/07/29 10:48:43;;;;;;;;;;;;;;;28.22;38.89;100487.66;5098045;28;827;-39
2021/07/29 10:51:12;;;;;;;;;;;;;;;28.25;39.01;100497.22;5098036;28;776;-42
2021/07/29 10:53:40;;;;;;;;;;;;;;;28.25;39.26;100497.22;5091892;28;1091;-42
2021/07/29 10:56:06;;;;;;;;;;;;;;;28.63;39.03;100501.44;5079469;28;979;-39
2021/07/29 10:58:39;;;;;;;;;;;;;;;28.79;38.96;100515.72;5079756;28;756;-40
2021/07/29 11:01:04;;;;;;;;;;;;;;;28.48;38.71;100512.41;5098310;28;1909;-42
2021/07/29 11:03:29;;;;;;;;;;;;;;;28.30;38.62;100511.00;5080025;28;772;-42
2021/07/29 11:06:03;;;;;;;;;;;;;;;28.21;38.51;100507.59;5098418;28;775;-42
2021/07/29 11:08:28;;;;;;;;;;;;;;;28.33;38.38;100505.22;5097854;28;977;-42
2021/07/29 11:10:56;;;;;;;;;;;;;;;28.23;39.24;100499.28;5097597;28;740;-38
2021/07/29 11:13:21;;;;;;;;;;;;;;;28.22;39.12;100498.47;5097912;28;822;-42
2021/07/29 11:15:46;;;;;;;;;;;;;;;28.26;39.16;100503.50;5098080;28;921;-40
2021/07/29 11:18:15;;;;;;;;;;;;;;;28.24;38.98;100495.56;5097732;28;830;-40
2021/07/29 11:20:40;;;;;;;;;;;;;;;28.46;38.85;100492.84;5098002;28;1905;-41
2021/07/29 11:23:06;;;;;;;;;;;;;;;28.52;39.21;100485.78;5097510;28;831;-41
2021/07/29 11:25:33;;;;;;;;;;;;;;;28.67;38.89;100486.50;5079936;28;807;-42
2021/07/29 11:28:12;;;;;;;;;;;;;;;28.68;39.11;100482.75;5097294;28;967;-40
2021/07/29 11:30:40;;;;;;;;;;;;;;;28.85;39.57;100482.41;5097491;28;754;-43
2021/07/29 11:33:06;;;;;;;;;;;;;;;28.96;39.70;100484.53;5097407;28;791;-37
2021/07/29 11:35:32;;;;;;;;;;;;;;;28.72;39.09;100485.91;5079578;28;768;-42
2021/07/29 11:37:57;;;;;;;;;;;;;;;28.64;38.88;100486.06;5097004;28;728;-40
2021/07/29 11:40:23;;;;;;;;;;;;;;;28.86;38.51;100475.97;5097047;28;1902;-37
2021/07/29 11:42:48;;;;;;;;;;;;;;;28.93;38.13;100474.13;5078563;28;998;-42
2021/07/29 11:45:21;;;;;;;;;;;;;;;28.80;38.63;100469.47;5097269;28;787;-39
2021/07/29 11:47:46;;;;;;;;;;;;;;;28.11;40.21;100463.88;5097358;28;751;-40
2021/07/29 11:50:12;;;;;;;;;;;;;;;28.04;40.65;100466.50;5097223;28;802;-39
2021/07/29 11:52:48;;;;;;;;;;;;;;;27.96;40.58;100461.25;5096879;28;972;-40
2021/07/29 11:55:14;;;;;;;;;;;;;;;27.93;40.76;100458.91;5097150;28;1059;-35
2021/07/29 11:57:40;;;;;;;;;;;;;;;27.95;40.96;100460.41;5096609;28;1013;-37
2021/07/29 12:00:05;;;;;;;;;;;;;;;27.95;40.74;100452.28;5096669;28;1910;-37
2021/07/29 12:02:31;;;;;;;;;;;;;;;27.99;40.91;100455.44;5096669;28;1119;-40
2021/07/29 12:04:56;;;;;;;;;;;;;;;27.84;41.19;100464.47;5079179;28;891;-41
2021/07/29 12:07:21;;;;;;;;;;;;;;;27.91;41.16;100456.41;5078834;28;806;-41
2021/07/29 12:09:46;;;;;;;;;;;;;;;27.94;40.98;100449.78;5097101;28;812;-36
2021/07/29 12:12:12;;;;;;;;;;;;;;;27.91;40.82;100448.31;5096282;28;946;-37
2021/07/29 12:14:38;;;;;;;;;;;;;;;27.97;40.73;100452.94;5078474;28;1005;-40
2021/07/29 12:17:03;;;;;;;;;;;;;;;27.95;40.80;100449.59;5078206;28;914;-39
2021/07/29 12:19:29;;;;;;;;;;;;;;;27.97;41.22;100444.84;5079209;28;843;-41
2021/07/29 12:21:55;;;;;;;;;;;;;;;27.96;41.02;100443.16;5096578;28;1902;-40
2021/07/29 12:24:21;;;;;;;;;;;;;;;27.97;41.09;100438.59;5096579;28;1469;-37
2021/07/29 12:27:05;;;;;;;;;;;;;;;27.99;41.25;100431.94;5096283;28;959;-40
2021/07/29 12:29:40;;;;;;;;;;;;;;;27.99;41.25;100431.13;5096997;28;763;-39
2021/07/29 12:32:06;;;;;;;;;;;;;;;28.01;41.33;100429.03;5096652;28;739;-40
2021/07/29 12:34:34;;;;;;;;;;;;;;;27.98;41.55;100430.28;5078181;28;1299;-41
2021/07/29 12:36:59;;;;;;;;;;;;;;;28.03;41.54;100426.97;5096697;28;752;-42
2021/07/29 12:39:32;;;;;;;;;;;;;;;27.97;41.34;100427.75;5096877;28;767;-37
2021/07/29 12:41:57;;;;;;;;;;;;;;;27.90;41.54;100429.56;5095882;28;1969;-39
2021/07/29 12:44:23;;;;;;;;;;;;;;;27.96;41.38;100426.09;5096213;28;808;-36
2021/07/29 12:46:48;;;;;;;;;;;;;;;27.95;41.42;100425.25;5096761;28;763;-37
2021/07/29 12:49:14;;;;;;;;;;;;;;;27.95;41.75;100417.16;5096649;28;775;-39